Time;durP1;ratioP1;P1;durP2;ratioP2;P2;SDS_P1;SDS_P2;PMS_P1;PMS_P2;Temp;Humidity;BMP_temperature;BMP_pressure;BME280_temperature;BME280_humidity;BME280_pressure;Samples;Min_cycle;Max_cycle;Signal;HPM_P1;HPM_P2
2022/07/22 00:01:04;;;;;;;4.25;3.00;;;;;;;20.17;62.20;102076.53;4988617;28;123261;-84
2022/07/22 00:03:31;;;;;;;6.03;3.22;;;;;;;20.15;62.21;102083.84;5001475;28;122148;-84
2022/07/22 00:05:59;;;;;;;6.68;3.17;;;;;;;20.12;62.15;102078.69;5002333;28;119378;-82
2022/07/22 00:08:26;;;;;;;8.32;2.85;;;;;;;20.12;62.43;102078.69;4986545;28;124573;-83
2022/07/22 00:10:53;;;;;;;5.68;2.80;;;;;;;20.11;62.41;102072.41;4973818;28;122123;-84
2022/07/22 00:13:20;;;;;;;5.35;3.13;;;;;;;20.10;62.51;102080.56;4985369;28;118380;-83
2022/07/22 00:15:47;;;;;;;9.57;3.38;;;;;;;20.11;62.44;102079.63;5001371;28;117245;-83
2022/07/22 00:18:14;;;;;;;7.60;3.33;;;;;;;20.12;62.49;102078.69;4998234;28;123592;-82
2022/07/22 00:20:42;;;;;;;9.63;3.75;;;;;;;20.12;62.15;102078.69;5004664;28;123683;-82
2022/07/22 00:23:09;;;;;;;6.22;2.72;;;;;;;20.12;62.23;102073.28;5003267;28;120485;-83
2022/07/22 00:25:37;;;;;;;5.05;2.45;;;;;;;20.12;62.01;102081.38;4980958;28;119094;-83
2022/07/22 00:28:04;;;;;;;7.30;2.90;;;;;;;20.11;62.28;102082.31;4999217;28;123612;-83
2022/07/22 00:30:31;;;;;;;7.88;2.67;;;;;;;20.13;62.08;102080.38;4999543;28;123688;-83
2022/07/22 00:32:59;;;;;;;5.88;2.50;;;;;;;20.12;62.14;102073.28;4985772;28;117705;-83
2022/07/22 00:35:26;;;;;;;6.75;2.90;;;;;;;20.14;62.01;102076.75;4999015;28;119001;-84
2022/07/22 00:37:53;;;;;;;6.05;2.92;;;;;;;20.12;61.91;102078.69;5004532;28;124777;-83
2022/07/22 00:40:20;;;;;;;7.97;2.85;;;;;;;20.09;61.69;102068.09;4976181;28;123773;-83
2022/07/22 00:42:49;;;;;;;6.95;2.50;;;;;;;20.08;61.79;102069.06;5005891;28;119898;-81
2022/07/22 00:45:16;;;;;;;4.45;2.55;;;;;;;20.08;61.98;102077.13;4993432;28;119590;-83
2022/07/22 00:47:43;;;;;;;9.20;2.80;;;;;;;20.09;61.70;102068.09;5001520;28;124129;-83
2022/07/22 00:50:10;;;;;;;5.18;2.70;;;;;;;20.09;61.84;102070.78;4983846;28;123118;-83
2022/07/22 00:52:38;;;;;;;6.47;3.20;;;;;;;20.10;61.98;102065.31;5001226;28;119501;-83
2022/07/22 00:55:06;;;;;;;6.75;2.97;;;;;;;20.14;62.07;102060.59;4987508;28;116394;-83
2022/07/22 00:57:33;;;;;;;6.22;2.85;;;;;;;20.16;61.99;102061.34;4986596;28;123335;-82
2022/07/22 01:00:01;;;;;;;6.20;2.83;;;;;;;20.18;61.95;102062.97;5005333;28;123778;-82
2022/07/22 01:02:28;;;;;;;7.40;3.03;;;;;;;20.19;61.89;102064.72;4989591;28;119024;-83
2022/07/22 01:04:55;;;;;;;9.68;3.08;;;;;;;20.18;61.68;102057.59;4988534;28;118770;-84
2022/07/22 01:07:22;;;;;;;7.95;3.03;;;;;;;20.18;61.91;102049.53;4986849;28;124279;-83
2022/07/22 01:09:49;;;;;;;5.10;2.80;;;;;;;20.17;61.93;102055.00;4989894;28;122866;-83
2022/07/22 01:12:17;;;;;;;5.45;2.63;;;;;;;20.16;61.79;102064.06;4999119;28;119842;-82
2022/07/22 01:14:44;;;;;;;6.60;3.08;;;;;;;20.16;61.99;102064.06;4980219;28;120180;-83
2022/07/22 01:17:11;;;;;;;7.45;3.30;;;;;;;20.17;61.69;102060.38;5003557;28;122590;-83
2022/07/22 01:19:39;;;;;;;6.53;3.00;;;;;;;20.15;61.66;102063.16;5005883;28;122555;-81
2022/07/22 01:22:07;;;;;;;8.18;3.50;;;;;;;20.15;61.84;102065.00;5004134;28;117943;-82
2022/07/22 01:24:34;;;;;;;6.25;3.20;;;;;;;20.16;62.05;102066.75;5007273;28;118595;-82
2022/07/22 01:27:02;;;;;;;6.63;3.55;;;;;;;20.16;61.97;102064.06;4997839;28;123630;-82
2022/07/22 01:29:29;;;;;;;10.38;3.70;;;;;;;20.17;61.79;102060.38;5000093;28;123178;-83
2022/07/22 01:31:56;;;;;;;8.32;3.80;;;;;;;20.18;61.71;102062.13;4977950;28;117660;-82
2022/07/22 01:34:24;;;;;;;4.32;3.28;;;;;;;20.17;61.91;102065.75;4980774;28;119661;-82
2022/07/22 01:36:52;;;;;;;10.02;4.13;;;;;;;20.18;61.88;102059.44;4962491;28;122266;-83
2022/07/22 01:39:19;;;;;;;8.05;3.53;;;;;;;20.20;61.97;102060.19;4977875;28;123469;-82
2022/07/22 01:41:47;;;;;;;7.03;3.20;;;;;;;20.21;61.97;102056.50;4968868;28;119289;-83
2022/07/22 01:44:14;;;;;;;5.90;3.42;;;;;;;20.19;61.77;102063.81;5001362;28;117630;-83
2022/07/22 01:46:41;;;;;;;8.32;3.55;;;;;;;20.17;61.88;102061.25;4983834;28;124089;-83
2022/07/22 01:49:08;;;;;;;5.65;3.20;;;;;;;20.18;61.90;102057.59;4987583;28;122965;-83
2022/07/22 01:51:38;;;;;;;6.43;3.72;;;;;;;20.19;62.08;102063.81;5001914;28;117828;-83
2022/07/22 01:54:05;;;;;;;8.35;3.58;;;;;;;20.20;61.75;102057.50;5004583;28;118057;-83
2022/07/22 01:56:32;;;;;;;6.60;3.90;;;;;;;20.20;61.94;102060.19;5007013;28;123265;-83
2022/07/22 01:59:00;;;;;;;9.75;4.13;;;;;;;20.21;61.84;102051.13;4988328;28;122466;-82
2022/07/22 02:01:29;;;;;;;7.13;3.53;;;;;;;20.22;61.93;102058.25;4987952;28;118341;-82
2022/07/22 02:03:56;;;;;;;6.65;3.70;;;;;;;20.22;61.75;102047.50;4993190;28;119110;-82
2022/07/22 02:06:23;;;;;;;7.22;3.67;;;;;;;20.22;61.99;102047.50;4982605;28;123839;-82
2022/07/22 02:08:52;;;;;;;5.95;3.17;;;;;;;20.22;61.92;102042.13;4988201;28;124013;-83
2022/07/22 02:11:52;;;;;;;7.63;3.50;;;;;;;20.20;61.81;102044.03;4988356;28;120029;-83
2022/07/22 02:14:20;;;;;;;9.32;4.50;;;;;;;20.20;61.69;102044.91;4987781;28;117250;-82
2022/07/22 02:16:49;;;;;;;10.60;3.88;;;;;;;20.19;61.88;102036.94;4983989;28;123433;-83
2022/07/22 02:19:16;;;;;;;9.20;3.95;;;;;;;20.18;61.95;102043.28;4983100;28;122590;-82
2022/07/22 02:21:45;;;;;;;9.07;3.97;;;;;;;20.18;61.93;102051.34;4978106;28;118368;-83
2022/07/22 02:24:12;;;;;;;7.50;4.07;;;;;;;20.20;61.83;102033.28;5002455;28;118216;-83
2022/07/22 02:26:40;;;;;;;7.65;4.03;;;;;;;20.20;62.00;102038.66;4984079;28;123939;-83
2022/07/22 02:29:07;;;;;;;8.07;3.83;;;;;;;20.22;62.09;102042.13;4977440;28;123651;-84
2022/07/22 02:31:35;;;;;;;10.13;3.97;;;;;;;20.23;61.82;102035.78;5008308;28;118929;-83
2022/07/22 02:34:06;;;;;;;8.90;3.53;;;;;;;20.24;62.07;102040.19;4990756;28;119247;-83
2022/07/22 02:36:33;;;;;;;6.00;3.40;;;;;;;20.26;61.91;102038.25;4986828;28;123737;-83
2022/07/22 02:39:03;;;;;;;8.70;3.47;;;;;;;20.26;61.90;102035.56;4980762;28;124263;-82
2022/07/22 02:41:31;;;;;;;7.95;3.95;;;;;;;20.26;61.96;102038.25;4993628;28;118390;-83
2022/07/22 02:43:59;;;;;;;8.82;3.65;;;;;;;20.27;62.06;102039.09;4986799;28;117140;-83
2022/07/22 02:46:30;;;;;;;8.70;3.90;;;;;;;20.27;62.17;102045.38;4980885;28;123920;-83
2022/07/22 02:49:08;;;;;;;7.30;3.83;;;;;;;20.28;62.11;102047.06;4999986;28;125109;-83
2022/07/22 02:51:36;;;;;;;8.07;3.72;;;;;;;20.29;61.73;102048.81;4988356;28;120134;-83
2022/07/22 02:54:03;;;;;;;8.10;3.63;;;;;;;20.29;61.83;102043.44;4989925;28;119179;-83
2022/07/22 02:56:31;;;;;;;11.25;4.20;;;;;;;20.29;61.93;102048.81;4984577;28;123087;-83
2022/07/22 02:58:58;;;;;;;6.43;3.42;;;;;;;20.31;61.82;102049.56;5007543;28;123689;-84
2022/07/22 03:01:26;;;;;;;8.85;4.30;;;;;;;20.30;61.82;102047.84;4986787;28;118206;-83
2022/07/22 03:03:57;;;;;;;8.93;3.95;;;;;;;20.30;61.77;102045.13;5006115;28;117589;-83
2022/07/22 03:06:25;;;;;;;7.80;3.60;;;;;;;20.30;61.94;102045.13;4992679;28;124096;-83
2022/07/22 03:09:07;;;;;;;7.40;3.70;;;;;;;20.30;61.83;102039.75;4999551;28;123849;-82
2022/07/22 03:11:36;;;;;;;8.48;3.58;;;;;;;20.31;62.00;102041.50;4994538;28;119163;-83
2022/07/22 03:14:04;;;;;;;8.32;3.83;;;;;;;20.32;61.83;102045.91;4991795;28;117346;-83
2022/07/22 03:16:31;;;;;;;7.35;3.72;;;;;;;20.32;61.85;102047.72;4990310;28;123570;-83
2022/07/22 03:18:58;;;;;;;7.10;3.83;;;;;;;20.32;61.97;102043.22;4987801;28;122729;-83
2022/07/22 03:21:26;;;;;;;8.48;4.40;;;;;;;20.31;61.92;102041.50;5002037;28;118810;-83
2022/07/22 03:23:54;;;;;;;9.55;4.07;;;;;;;20.32;61.77;102043.22;4985765;28;119250;-83
2022/07/22 03:26:23;;;;;;;8.50;3.83;;;;;;;20.32;61.88;102048.59;4985589;28;124286;-82
2022/07/22 03:28:51;;;;;;;8.00;4.05;;;;;;;20.32;61.87;102037.81;4983376;28;123010;-83
2022/07/22 03:31:19;;;;;;;7.78;3.75;;;;;;;20.34;62.13;102035.03;4987537;28;119367;-83
2022/07/22 03:33:46;;;;;;;6.20;3.70;;;;;;;20.35;61.99;102036.78;5007206;28;118014;-82
2022/07/22 03:36:14;;;;;;;6.35;4.10;;;;;;;20.35;62.05;102036.78;4995108;28;122955;-83
2022/07/22 03:38:46;;;;;;;9.25;4.07;;;;;;;20.35;61.92;102026.88;4971330;28;123731;-86
2022/07/22 03:41:14;;;;;;;7.82;3.95;;;;;;;20.36;61.85;102034.00;4990363;28;119501;-84
2022/07/22 03:43:42;;;;;;;9.18;4.28;;;;;;;20.36;61.88;102030.41;4983910;28;118372;-87
2022/07/22 03:46:09;;;;;;;8.68;4.35;;;;;;;20.37;62.02;102024.94;5005075;28;123105;-84
2022/07/22 03:48:36;;;;;;;8.88;4.03;;;;;;;20.37;61.80;102026.78;4995819;28;122743;-85
2022/07/22 03:51:03;;;;;;;8.15;4.53;;;;;;;20.37;61.61;102024.94;5003406;28;119788;-85
2022/07/22 03:53:32;;;;;;;8.30;4.43;;;;;;;20.38;61.87;102026.66;4993080;28;117464;-84
2022/07/22 03:56:02;;;;;;;9.13;4.40;;;;;;;20.38;61.73;102026.66;4979300;28;123102;-88
2022/07/22 03:58:31;;;;;;;10.48;4.55;;;;;;;20.38;61.80;102020.41;5004710;28;123508;-84
2022/07/22 04:00:59;;;;;;;9.30;4.47;;;;;;;20.40;61.75;102030.13;5004253;28;118597;-86
2022/07/22 04:03:26;;;;;;;9.10;4.40;;;;;;;20.38;61.68;102032.06;5006888;28;116339;-85
2022/07/22 04:06:09;;;;;;;6.60;4.30;;;;;;;20.37;61.79;102030.31;4995302;28;123050;-86
2022/07/22 04:08:50;;;;;;;9.75;4.22;;;;;;;20.37;61.74;102030.31;5001944;28;123451;-87
2022/07/22 04:11:18;;;;;;;8.00;4.50;;;;;;;20.37;61.93;102035.69;5007351;28;119458;-84
2022/07/22 04:13:45;;;;;;;8.57;4.38;;;;;;;20.39;61.93;102039.16;5003188;28;117032;-84
2022/07/22 04:16:13;;;;;;;9.48;4.30;;;;;;;20.40;61.94;102035.50;4978549;28;123304;-82
2022/07/22 04:18:49;;;;;;;6.45;4.07;;;;;;;20.40;61.93;102040.88;4984740;28;122273;-83
2022/07/22 04:21:25;;;;;;;8.73;4.43;;;;;;;20.42;61.86;102038.09;4988329;28;119680;-84
2022/07/22 04:23:55;;;;;;;7.90;3.97;;;;;;;20.42;61.82;102038.94;4992672;28;118094;-84
2022/07/22 04:26:30;;;;;;;8.63;4.55;;;;;;;20.43;61.98;102035.28;4985358;28;124069;-84
2022/07/22 04:28:58;;;;;;;9.48;4.18;;;;;;;20.45;61.70;102039.69;5006033;28;122975;-84
2022/07/22 04:31:28;;;;;;;7.72;4.47;;;;;;;20.47;61.90;102040.47;5005564;28;119640;-84
2022/07/22 04:34:01;;;;;;;9.13;4.68;;;;;;;20.49;61.89;102043.91;4986755;28;119336;-84
2022/07/22 04:36:29;;;;;;;7.63;4.38;;;;;;;20.50;61.94;102042.97;5011625;28;123791;-83
2022/07/22 04:38:56;;;;;;;10.02;4.75;;;;;;;20.51;61.83;102036.59;4986320;28;122532;-84
2022/07/22 04:41:24;;;;;;;8.45;4.75;;;;;;;20.52;61.63;102038.31;4991368;28;119542;-85
2022/07/22 04:43:52;;;;;;;7.07;4.32;;;;;;;20.52;61.66;102043.72;4998729;28;117671;-83
2022/07/22 04:46:22;;;;;;;10.13;4.75;;;;;;;20.52;61.71;102038.31;4993614;28;122738;-84
2022/07/22 04:48:51;;;;;;;6.38;4.40;;;;;;;20.51;61.69;102036.59;4994204;28;123619;-84
2022/07/22 04:51:18;;;;;;;9.48;4.45;;;;;;;20.52;61.68;102032.94;5007642;28;118195;-83
2022/07/22 04:53:48;;;;;;;8.85;4.32;;;;;;;20.54;62.02;102041.78;4996583;28;118627;-84
2022/07/22 04:56:19;;;;;;;7.13;4.50;;;;;;;20.54;61.81;102037.25;5007290;28;123242;-83
2022/07/22 04:58:49;;;;;;;10.32;4.80;;;;;;;20.54;61.85;102031.00;5010886;28;125215;-85
2022/07/22 05:01:17;;;;;;;9.57;5.13;;;;;;;20.56;61.74;102031.75;4999486;28;119347;-82
2022/07/22 05:03:48;;;;;;;11.05;4.78;;;;;;;20.56;61.82;102029.06;4988087;28;117598;-83
2022/07/22 05:06:15;;;;;;;9.02;4.30;;;;;;;20.59;61.72;102026.19;4991554;28;123324;-85
2022/07/22 05:08:43;;;;;;;11.20;4.40;;;;;;;20.61;61.77;102026.97;4992675;28;122514;-85
2022/07/22 05:11:11;;;;;;;9.02;4.55;;;;;;;20.62;61.75;102028.66;4993354;28;118896;-84
2022/07/22 05:13:39;;;;;;;7.13;4.32;;;;;;;20.64;61.53;102032.13;5007720;28;118656;-85
2022/07/22 05:16:07;;;;;;;7.38;4.10;;;;;;;20.65;61.62;102027.63;5012020;28;123144;-84
2022/07/22 05:18:36;;;;;;;10.48;4.10;;;;;;;20.67;61.39;102031.91;5012161;28;122043;-84
2022/07/22 05:21:05;;;;;;;7.82;3.70;;;;;;;20.70;61.43;102020.94;5013095;28;120512;-85
2022/07/22 05:23:33;;;;;;;10.73;4.30;;;;;;;20.72;61.35;102029.78;4995083;28;119462;-83
2022/07/22 05:26:00;;;;;;;9.50;4.20;;;;;;;20.74;61.46;102022.47;5001465;28;123517;-84
2022/07/22 05:28:28;;;;;;;10.13;4.50;;;;;;;20.77;61.30;102022.22;4991424;28;122195;-84
2022/07/22 05:30:56;;;;;;;6.90;3.85;;;;;;;20.79;61.28;102028.41;4993848;28;118712;-84
2022/07/22 05:33:25;;;;;;;6.47;4.65;;;;;;;20.82;61.39;102034.53;5007919;28;118146;-84
2022/07/22 05:36:03;;;;;;;8.85;4.00;;;;;;;20.85;61.18;102039.69;4994366;28;123405;-84
2022/07/22 05:38:42;;;;;;;8.60;4.03;;;;;;;20.87;61.25;102032.34;5008347;28;123344;-84
2022/07/22 05:41:10;;;;;;;7.57;3.38;;;;;;;20.89;61.00;102030.41;5011200;28;118731;-84
2022/07/22 05:43:38;;;;;;;10.32;3.90;;;;;;;20.91;61.01;102029.34;5007978;28;118664;-84
2022/07/22 05:46:07;;;;;;;9.85;3.78;;;;;;;20.93;60.81;102031.94;4996143;28;123294;-83
2022/07/22 05:48:34;;;;;;;9.05;4.18;;;;;;;20.95;60.59;102040.78;4992025;28;122185;-84
2022/07/22 05:51:02;;;;;;;6.85;3.55;;;;;;;20.98;60.54;102040.53;4996162;28;120049;-83
2022/07/22 05:53:31;;;;;;;6.90;3.75;;;;;;;20.99;60.56;102043.13;5012748;28;117732;-83
2022/07/22 05:55:58;;;;;;;8.38;4.05;;;;;;;21.02;60.34;102036.69;4997620;28;122715;-84
2022/07/22 05:58:33;;;;;;;6.30;3.55;;;;;;;21.05;60.49;102047.22;5013688;28;123586;-82
2022/07/22 06:01:00;;;;;;;6.75;3.58;;;;;;;21.08;60.20;102052.41;4983593;28;117674;-84
2022/07/22 06:03:28;;;;;;;8.05;4.05;;;;;;;21.11;60.03;102045.94;5010252;28;118535;-83
2022/07/22 06:05:55;;;;;;;6.07;3.70;;;;;;;21.12;60.17;102048.53;5000154;28;122161;-83
2022/07/22 06:08:22;;;;;;;9.77;4.57;;;;;;;21.15;59.88;102042.94;4999805;28;123182;-83
2022/07/22 06:10:51;;;;;;;8.32;3.92;;;;;;;21.18;59.69;102037.31;4996060;28;120753;-83
2022/07/22 06:13:20;;;;;;;7.82;3.95;;;;;;;21.18;59.64;102031.91;5016110;28;119053;-83
2022/07/22 06:15:47;;;;;;;5.60;3.75;;;;;;;21.22;59.64;102034.41;4997895;28;123583;-83
2022/07/22 06:18:15;;;;;;;6.80;3.95;;;;;;;21.25;59.66;102031.47;5016156;28;123935;-83
2022/07/22 06:20:43;;;;;;;8.48;4.50;;;;;;;21.30;59.52;102040.09;4993703;28;117831;-83
2022/07/22 06:23:10;;;;;;;7.40;4.00;;;;;;;21.34;59.64;102037.09;5008558;28;117904;-83
2022/07/22 06:25:38;;;;;;;8.93;4.28;;;;;;;21.37;59.54;102036.84;4998947;28;122779;-83
2022/07/22 06:28:17;;;;;;;9.35;4.45;;;;;;;21.40;59.53;102041.19;4999156;28;122316;-83
2022/07/22 06:30:44;;;;;;;7.18;3.85;;;;;;;21.42;59.38;102039.25;5016579;28;120230;-83
2022/07/22 06:33:13;;;;;;;7.20;3.33;;;;;;;21.45;59.17;102039.03;4998528;28;117356;-83
2022/07/22 06:35:40;;;;;;;6.75;3.20;;;;;;;21.49;58.81;102032.47;4988246;28;124173;-82
2022/07/22 06:38:08;;;;;;;8.98;3.22;;;;;;;21.52;58.83;102034.91;5011509;28;124274;-83
2022/07/22 06:41:03;;;;;;;6.88;2.88;;;;;;;21.55;58.51;102047.34;5020761;28;120332;-84
2022/07/22 06:43:46;;;;;;;4.65;2.88;;;;;;;21.57;58.38;102054.34;5016373;28;118048;-83
2022/07/22 06:46:48;;;;;;;5.53;3.00;;;;;;;21.58;58.28;102045.25;5010125;28;123760;-82
2022/07/22 06:49:18;;;;;;;6.38;3.05;;;;;;;21.61;58.01;102043.34;4992777;28;122882;-82
2022/07/22 06:51:45;;;;;;;9.68;3.50;;;;;;;21.67;58.22;102032.09;5016569;28;119792;-83
2022/07/22 06:54:12;;;;;;;8.07;3.60;;;;;;;21.72;58.10;102040.72;5009785;28;118538;-83
2022/07/22 06:56:39;;;;;;;6.93;3.35;;;;;;;21.79;57.95;102041.97;5019738;28;123717;-81
2022/07/22 06:59:10;;;;;;;5.75;3.22;;;;;;;21.84;57.76;102039.78;5002382;28;122392;-82
2022/07/22 07:01:37;;;;;;;7.10;3.20;;;;;;;21.87;57.57;102033.31;5002155;28;119460;-83
2022/07/22 07:04:05;;;;;;;8.23;3.38;;;;;;;21.89;57.48;102032.25;5016045;28;118737;-82
2022/07/22 07:06:33;;;;;;;6.00;3.03;;;;;;;21.94;57.46;102030.06;5025262;28;122663;-82
2022/07/22 07:09:08;;;;;;;;;;;;;;;21.97;57.89;102035.22;5025505;28;122503;-82
2022/07/22 07:11:36;;;;;;;6.40;3.53;;;;;;;22.07;57.34;102039.94;5009091;28;119722;-82
2022/07/22 07:14:12;;;;;;;8.63;3.20;;;;;;;22.12;57.38;102037.75;5027114;28;117745;-83
2022/07/22 07:16:39;;;;;;;5.43;3.13;;;;;;;22.18;57.01;102031.88;5028606;28;124098;-81
2022/07/22 07:19:06;;;;;;;11.35;3.70;;;;;;;22.22;56.88;102033.38;5028028;28;122027;-82
2022/07/22 07:21:33;;;;;;;6.00;3.20;;;;;;;22.26;56.84;102034.88;5030748;28;118742;-83
2022/07/22 07:24:01;;;;;;;8.23;3.10;;;;;;;22.31;56.76;102027.31;5010596;28;118213;-82
2022/07/22 07:26:28;;;;;;;7.40;3.55;;;;;;;22.37;56.68;102025.13;5028139;28;123269;-81
2022/07/22 07:28:55;;;;;;;7.30;3.20;;;;;;;22.43;56.23;102030.03;5026460;28;122660;-82
2022/07/22 07:31:36;;;;;;;5.90;3.40;;;;;;;22.49;56.27;102026.88;5005872;28;118010;-81
2022/07/22 07:34:11;;;;;;;;;;;;;;;22.53;56.70;102025.69;5005839;28;118265;-82
2022/07/22 07:36:38;;;;;;;4.20;2.22;;;;;;;22.62;56.31;102024.97;5024676;28;123927;-82
2022/07/22 07:39:06;;;;;;;5.05;2.28;;;;;;;22.67;55.90;102017.34;5003446;28;122930;-81
2022/07/22 07:41:33;;;;;;;6.07;1.92;;;;;;;22.70;55.57;102017.13;5008146;28;119978;-82
2022/07/22 07:44:00;;;;;;;3.65;1.70;;;;;;;22.70;55.49;102017.13;5013227;28;118410;-82
2022/07/22 07:46:27;;;;;;;4.18;1.77;;;;;;;22.72;54.97;102025.97;5014457;28;124755;-82
2022/07/22 07:48:56;;;;;;;4.38;2.00;;;;;;;22.70;54.66;102024.38;5009917;28;123739;-82
2022/07/22 07:51:25;;;;;;;5.03;1.80;;;;;;;22.69;54.54;102020.78;5014028;28;118769;-81
2022/07/22 07:53:52;;;;;;;3.35;1.58;;;;;;;22.67;54.46;102020.06;5025659;28;119294;-82
2022/07/22 07:56:22;;;;;;;3.17;1.60;;;;;;;22.70;54.60;102017.13;5030027;28;123082;-82
2022/07/22 07:58:49;;;;;;;3.80;1.80;;;;;;;22.71;54.36;102021.53;5013562;28;124419;-82
2022/07/22 08:01:37;;;;;;;6.93;2.10;;;;;;;22.71;54.42;102024.22;5027292;28;118357;-82
2022/07/22 08:04:24;;;;;;;4.03;2.00;;;;;;;22.74;54.42;102020.44;5007994;28;118522;-81
2022/07/22 08:07:15;;;;;;;4.03;2.10;;;;;;;22.77;54.53;102016.63;5026066;28;122939;-81
2022/07/22 08:09:44;;;;;;;5.40;1.92;;;;;;;22.81;54.29;102018.09;5031454;28;124173;-82
2022/07/22 08:12:25;;;;;;;5.20;1.85;;;;;;;22.88;54.37;102019.34;5012998;28;119015;-81
2022/07/22 08:15:16;;;;;;;3.22;1.98;;;;;;;22.99;54.43;102021.22;5024210;28;119110;-81
2022/07/22 08:17:51;;;;;;;4.88;2.20;;;;;;;23.07;54.17;102019.63;5027487;28;123854;-80
2022/07/22 08:20:20;;;;;;;3.22;1.67;;;;;;;23.12;53.92;102017.44;5012667;28;124176;-82
2022/07/22 08:22:50;;;;;;;5.72;2.50;;;;;;;23.17;53.31;102029.72;5008059;28;118913;-82
2022/07/22 08:25:18;;;;;;;4.68;2.00;;;;;;;23.22;53.07;102022.13;5026262;28;117411;-82
2022/07/22 08:27:45;;;;;;;4.20;2.38;;;;;;;23.25;53.19;102021.88;5027043;28;123910;-81
2022/07/22 08:30:13;;;;;;;3.15;1.48;;;;;;;23.26;52.66;102016.34;5027363;28;123714;-82
2022/07/22 08:32:40;;;;;;;2.75;1.90;;;;;;;23.25;52.85;102005.66;5026934;28;120147;-81
2022/07/22 08:35:09;;;;;;;3.10;1.80;;;;;;;23.28;52.75;102016.22;5025896;28;118189;-82
2022/07/22 08:37:37;;;;;;;3.05;1.90;;;;;;;23.30;52.16;102012.41;5007434;28;122998;-80
2022/07/22 08:40:08;;;;;;;5.25;1.70;;;;;;;23.31;52.35;102005.16;5028383;28;123311;-80
2022/07/22 08:42:40;;;;;;;7.38;2.00;;;;;;;23.33;52.33;102008.59;4996012;28;119847;-82
2022/07/22 08:45:09;;;;;;;6.00;2.10;;;;;;;23.35;52.45;102006.63;5013727;28;119971;-81
2022/07/22 08:47:51;;;;;;;3.63;1.73;;;;;;;23.39;52.32;102013.50;5027510;28;124058;-81
2022/07/22 08:50:38;;;;;;;2.55;1.58;;;;;;;23.42;52.25;102013.25;5023826;28;125661;-82
2022/07/22 08:53:28;;;;;;;4.13;1.60;;;;;;;23.47;52.53;102011.06;5018939;28;119250;-82
2022/07/22 08:56:01;;;;;;;3.35;1.75;;;;;;;23.58;52.33;102006.59;4995264;28;117400;-81
2022/07/22 08:58:28;;;;;;;3.30;1.73;;;;;;;23.70;51.73;102005.59;5019007;28;123747;-81
2022/07/22 09:01:09;;;;;;;4.35;1.60;;;;;;;23.82;51.24;102004.59;4999221;28;121974;-82
2022/07/22 09:03:49;;;;;;;3.60;1.60;;;;;;;23.95;50.83;101996.31;4995566;28;117541;-81
2022/07/22 09:06:19;;;;;;;2.28;1.35;;;;;;;24.07;50.58;102002.53;5004665;28;117106;-82
2022/07/22 09:08:56;;;;;;;4.18;1.45;;;;;;;24.20;50.48;101992.41;5016455;28;124612;-84
2022/07/22 09:11:42;;;;;;;2.47;1.60;;;;;;;24.39;50.88;101999.84;5016157;28;124264;-85
2022/07/22 09:14:47;;;;;;;2.85;1.83;;;;;;;24.55;50.66;102002.09;5005535;28;118535;-84
2022/07/22 09:17:37;;;;;;;4.68;1.60;;;;;;;24.68;49.72;101989.22;4978160;28;118830;-84
2022/07/22 09:20:26;;;;;;;2.25;1.30;;;;;;;24.81;49.51;101993.56;5002125;28;123638;-83
2022/07/22 09:23:20;;;;;;;3.35;1.58;;;;;;;24.93;49.52;101995.19;4982419;28;123840;-84
2022/07/22 09:25:48;;;;;;;3.60;1.65;;;;;;;25.04;48.68;102008.66;4978510;28;118780;-84
2022/07/22 09:28:25;;;;;;;2.90;1.35;;;;;;;25.10;47.52;101995.56;4991569;28;117903;-84
2022/07/22 09:31:25;;;;;;;2.90;1.50;;;;;;;25.00;47.08;101993.66;4987530;28;125335;-84
2022/07/22 09:34:07;;;;;;;4.18;1.50;;;;;;;24.96;47.34;101994.94;4979659;28;122279;-83
2022/07/22 09:36:54;;;;;;;4.35;1.20;;;;;;;24.96;46.63;101989.50;4977158;28;119798;-83
2022/07/22 09:39:29;;;;;;;3.42;1.77;;;;;;;24.99;46.19;101988.38;4975493;28;119242;-83
2022/07/22 09:42:00;;;;;;;3.90;1.60;;;;;;;24.99;46.33;101981.09;4994255;28;124283;-83
2022/07/22 09:44:28;;;;;;;2.60;1.60;;;;;;;25.03;46.22;101979.84;4967518;28;124865;-83
2022/07/22 09:46:59;;;;;;;3.15;1.92;;;;;;;25.09;45.00;101977.56;4980148;28;118449;-83
2022/07/22 09:49:45;;;;;;;4.55;1.80;;;;;;;25.00;45.32;101985.53;4994334;28;96982;-83
2022/07/22 09:52:34;;;;;;;3.97;1.92;;;;;;;24.99;46.05;101982.94;4981325;28;124009;-83
2022/07/22 09:55:07;;;;;;;4.60;1.73;;;;;;;24.99;45.84;101983.81;4982336;28;122221;-84
2022/07/22 09:57:36;;;;;;;2.65;1.80;;;;;;;24.97;45.50;101974.09;4988230;28;119364;-83
2022/07/22 10:00:09;;;;;;;3.90;1.70;;;;;;;24.96;45.99;101967.84;5006383;28;120011;-85
2022/07/22 10:02:54;;;;;;;4.55;2.25;;;;;;;25.00;45.54;101969.28;4992337;28;122557;-84
2022/07/22 10:05:25;;;;;;;3.17;2.00;;;;;;;25.03;45.59;101966.28;5018990;28;125823;-84
2022/07/22 10:07:54;;;;;;;3.80;1.98;;;;;;;25.09;46.35;101969.44;4998516;28;120251;-85
2022/07/22 10:10:25;;;;;;;5.20;1.88;;;;;;;25.11;45.06;101964.72;4994647;28;118661;-85
2022/07/22 10:12:55;;;;;;;2.97;2.00;;;;;;;25.05;45.93;101961.59;5004298;28;123817;-86
2022/07/22 10:15:35;;;;;;;4.93;2.20;;;;;;;24.99;46.27;101972.97;5007186;28;123428;-85
2022/07/22 10:18:22;;;;;;;4.43;2.10;;;;;;;24.94;46.77;101980.66;5014820;22;119387;-63
2022/07/22 10:21:06;;;;;;;4.45;2.28;;;;;;;24.90;47.32;101973.78;4989059;28;118700;-63
2022/07/22 10:23:33;;;;;;;4.55;2.13;;;;;;;24.87;47.33;101982.19;5006233;28;123598;-64
2022/07/22 10:26:03;;;;;;;5.10;2.58;;;;;;;24.83;46.99;101975.34;4987847;28;123238;-64
2022/07/22 10:28:34;;;;;;;5.32;2.30;;;;;;;24.80;47.15;101983.72;4971965;28;119498;-68
2022/07/22 10:31:23;;;;;;;4.75;2.40;;;;;;;24.77;47.14;101981.25;5007059;28;120740;-67
2022/07/22 10:33:53;;;;;;;3.85;2.10;;;;;;;24.76;47.36;101979.56;5003859;28;124500;-68
2022/07/22 10:36:42;;;;;;;5.35;2.45;;;;;;;24.72;47.18;101975.41;4986536;28;124445;-67
2022/07/22 10:39:13;;;;;;;4.28;2.45;;;;;;;24.73;46.58;101982.53;4972255;28;118773;-67
2022/07/22 10:41:43;;;;;;;5.10;2.20;;;;;;;24.74;46.90;101989.69;5006962;28;118998;-67
2022/07/22 10:44:50;;;;;;;4.53;2.00;;;;;;;24.82;46.68;101981.72;5004424;28;124121;-68
2022/07/22 10:48:00;;;;;;;4.53;2.50;;;;;;;24.92;46.57;101977.22;5003148;28;124590;-68
2022/07/22 10:50:35;;;;;;;4.88;2.22;;;;;;;24.98;46.50;101982.09;5003305;28;119059;-67
2022/07/22 10:53:11;;;;;;;5.47;2.90;;;;;;;25.01;46.57;101970.97;4990006;28;118973;-67
2022/07/22 10:55:58;;;;;;;4.70;2.50;;;;;;;25.11;47.13;101968.31;5003787;28;124202;-67
2022/07/22 10:58:31;;;;;;;5.43;2.50;;;;;;;25.27;46.12;101975.13;5008914;28;124008;-63
2022/07/22 11:00:59;;;;;;;4.78;2.60;;;;;;;25.33;45.42;101969.97;5008463;28;119358;-64
2022/07/22 11:03:29;;;;;;;7.28;2.80;;;;;;;25.35;45.70;101965.28;5010426;28;119617;-63
2022/07/22 11:06:12;;;;;;;6.10;3.10;;;;;;;25.41;45.73;101962.03;5005438;28;124198;-63
2022/07/22 11:08:40;;;;;;;6.55;2.78;;;;;;;25.52;45.89;101962.88;5004685;28;123822;-64
2022/07/22 11:11:09;;;;;;;4.88;2.80;;;;;;;25.59;46.10;101958.63;5009511;28;119979;-64
2022/07/22 11:13:38;;;;;;;5.80;2.70;;;;;;;25.65;45.58;101952.63;5002145;28;120892;-64
2022/07/22 11:16:22;;;;;;;3.53;2.40;;;;;;;25.68;45.92;101957.78;5006732;28;124468;-64
2022/07/22 11:18:52;;;;;;;4.67;2.50;;;;;;;25.74;45.52;101946.34;5003780;28;124654;-64
2022/07/22 11:21:22;;;;;;;5.25;2.50;;;;;;;25.76;45.16;101944.34;5005583;28;120074;-64
2022/07/22 11:23:53;;;;;;;2.78;1.98;;;;;;;25.79;44.93;101952.22;5006690;28;120305;-67
2022/07/22 11:26:31;;;;;;;3.55;2.33;;;;;;;25.76;44.12;101949.78;5006636;28;124919;-68
2022/07/22 11:28:59;;;;;;;5.38;2.15;;;;;;;25.70;44.77;101950.34;5006444;28;123684;-67
2022/07/22 11:31:26;;;;;;;5.05;2.50;;;;;;;25.71;44.86;101949.38;5007931;28;120748;-67
2022/07/22 11:34:05;;;;;;;4.75;2.28;;;;;;;25.75;44.98;101945.38;4991239;28;118216;-68
2022/07/22 11:36:34;;;;;;;4.63;2.40;;;;;;;25.86;45.16;101940.78;4991215;28;123868;-67